createdAt,value
2017-02-01T00:00:17.983Z,19.58
2017-02-01T00:00:46.004Z,19.61
2017-02-01T00:01:13.980Z,19.56
2017-02-01T00:01:41.819Z,19.58
2017-02-01T00:02:10.697Z,19.61
2017-02-01T00:02:38.530Z,19.68
2017-02-01T00:03:07.443Z,19.76
2017-02-01T00:03:36.163Z,19.77
2017-02-01T00:04:04.261Z,19.69
2017-02-01T00:04:32.452Z,19.65
2017-02-01T00:05:01.321Z,19.63
2017-02-01T00:05:31.091Z,19.65
2017-02-01T00:05:59.754Z,19.69
2017-02-01T00:06:27.859Z,19.61
2017-02-01T00:06:55.961Z,19.55
2017-02-01T00:07:23.736Z,19.56
2017-02-01T00:07:51.721Z,19.51
2017-02-01T00:08:19.766Z,19.65
2017-02-01T00:08:47.789Z,19.59
2017-02-01T00:09:15.743Z,19.63
2017-02-01T00:09:43.684Z,19.48
2017-02-01T00:10:11.590Z,19.69
2017-02-01T00:10:41.270Z,19.63
2017-02-01T00:11:09.347Z,19.66
2017-02-01T00:11:37.305Z,19.69
2017-02-01T00:12:06.111Z,19.69
2017-02-01T00:12:34.075Z,19.65
2017-02-01T00:13:02.923Z,19.69
2017-02-01T00:13:31.583Z,19.73
2017-02-01T00:13:59.690Z,19.61
2017-02-01T00:14:27.749Z,19.61
2017-02-01T00:14:55.842Z,19.74
2017-02-01T00:15:23.698Z,19.69
2017-02-01T00:15:51.841Z,19.71
2017-02-01T00:16:19.948Z,19.8
2017-02-01T00:16:47.931Z,19.71
2017-02-01T00:17:15.824Z,19.73
2017-02-01T00:17:44.744Z,19.68
2017-02-01T00:18:12.759Z,19.63
2017-02-01T00:18:40.966Z,19.71
2017-02-01T00:19:08.951Z,19.66
2017-02-01T00:19:37.180Z,19.69
2017-02-01T00:20:05.183Z,19.58
2017-02-01T00:20:33.854Z,19.65
2017-02-01T00:21:01.868Z,19.66
2017-02-01T00:21:30.707Z,19.58
2017-02-01T00:22:37.037Z,19.61
2017-02-01T00:23:05.893Z,19.55
2017-02-01T00:23:33.959Z,19.54
2017-02-01T00:24:01.892Z,19.55
2017-02-01T00:24:30.726Z,19.63
2017-02-01T00:24:58.730Z,19.5
2017-02-01T00:25:26.715Z,19.48
2017-02-01T00:25:55.481Z,19.55
2017-02-01T00:26:23.518Z,19.61
2017-02-01T00:26:51.564Z,19.59
2017-02-01T00:27:19.464Z,19.55
2017-02-01T00:27:47.559Z,19.47
2017-02-01T00:28:15.649Z,19.55
2017-02-01T00:28:44.312Z,19.55
2017-02-01T00:29:12.271Z,19.5
2017-02-01T00:29:40.381Z,19.62
2017-02-01T00:30:08.436Z,19.58
2017-02-01T00:30:37.331Z,19.47
2017-02-01T00:31:05.355Z,19.58
2017-02-01T00:31:33.431Z,19.54
2017-02-01T00:32:01.504Z,19.5
2017-02-01T00:32:29.598Z,19.59
2017-02-01T00:32:58.386Z,19.55
2017-02-01T00:33:26.363Z,19.47
2017-02-01T00:33:55.162Z,19.58
2017-02-01T00:34:23.233Z,19.48
2017-02-01T00:34:51.432Z,19.48
2017-02-01T00:35:19.540Z,19.48
2017-02-01T00:35:47.628Z,19.46
2017-02-01T00:36:16.553Z,19.51
2017-02-01T00:36:44.465Z,19.54
2017-02-01T00:37:13.360Z,19.56
2017-02-01T00:37:41.491Z,19.58
2017-02-01T00:38:09.576Z,19.55
2017-02-01T00:38:37.602Z,19.56
2017-02-01T00:39:05.572Z,19.55
2017-02-01T00:39:33.635Z,19.51
2017-02-01T00:40:01.482Z,19.56
2017-02-01T00:40:29.448Z,19.56
2017-02-01T00:40:57.464Z,19.62
2017-02-01T00:41:25.558Z,19.4
2017-02-01T00:41:53.563Z,19.46
2017-02-01T00:42:21.708Z,19.48
2017-02-01T00:42:50.606Z,19.41
2017-02-01T00:43:18.722Z,19.4
2017-02-01T00:43:46.699Z,19.47
2017-02-01T00:44:14.608Z,19.54
2017-02-01T00:44:42.622Z,19.5
2017-02-01T00:45:10.503Z,19.41
2017-02-01T00:45:39.388Z,19.47
2017-02-01T00:46:07.394Z,19.39
2017-02-01T00:46:36.136Z,19.44
2017-02-01T00:47:04.212Z,19.36
2017-02-01T00:47:32.253Z,19.33
2017-02-01T00:48:00.355Z,19.37
2017-02-01T00:48:29.159Z,19.37
2017-02-01T00:48:57.184Z,19.36
2017-02-01T00:49:25.173Z,19.37
2017-02-01T00:49:53.448Z,19.48
2017-02-01T00:50:21.421Z,19.39
2017-02-01T00:50:49.364Z,19.48
2017-02-01T00:51:17.511Z,19.51
2017-02-01T00:51:45.466Z,19.51
2017-02-01T00:52:14.317Z,19.44
2017-02-01T00:52:42.376Z,19.4
2017-02-01T00:53:10.489Z,19.46
2017-02-01T00:53:39.152Z,19.44
2017-02-01T00:54:07.919Z,19.5
2017-02-01T00:54:36.831Z,19.5
2017-02-01T00:55:04.973Z,19.62
2017-02-01T00:55:32.995Z,19.56
2017-02-01T00:56:00.888Z,19.51
2017-02-01T00:56:28.960Z,19.55
2017-02-01T00:56:57.001Z,19.4
2017-02-01T00:57:25.104Z,19.56
2017-02-01T00:57:53.071Z,19.58
2017-02-01T00:58:20.869Z,19.65
2017-02-01T00:58:48.857Z,19.55
2017-02-01T00:59:17.149Z,19.54
2017-02-01T00:59:45.214Z,19.59
2017-02-01T01:00:14.693Z,19.58
2017-02-01T01:00:43.459Z,19.51
2017-02-01T01:01:49.691Z,19.51
2017-02-01T01:02:17.581Z,19.58
2017-02-01T01:02:46.355Z,19.5
2017-02-01T01:03:14.427Z,19.55
2017-02-01T01:03:42.410Z,19.55
2017-02-01T01:04:10.407Z,19.55
2017-02-01T01:04:38.490Z,19.58
2017-02-01T01:05:06.407Z,19.58
2017-02-01T01:05:35.127Z,19.55
2017-02-01T01:06:03.175Z,19.51
2017-02-01T01:06:31.169Z,19.58
2017-02-01T01:06:59.176Z,19.51
2017-02-01T01:07:27.174Z,19.51
2017-02-01T01:07:56.008Z,19.54
2017-02-01T01:08:23.971Z,19.46
2017-02-01T01:08:52.071Z,19.48
2017-02-01T01:09:20.132Z,19.43
2017-02-01T01:09:48.251Z,19.41
2017-02-01T01:10:16.268Z,19.5
2017-02-01T01:10:45.035Z,19.43
2017-02-01T01:11:13.006Z,19.41
2017-02-01T01:11:41.042Z,19.43
2017-02-01T01:12:09.059Z,19.46
2017-02-01T01:12:37.727Z,19.29
2017-02-01T01:13:05.660Z,19.31
2017-02-01T01:13:34.416Z,19.37
2017-02-01T01:14:02.245Z,19.33
2017-02-01T01:14:31.125Z,19.4
2017-02-01T01:14:59.021Z,19.39
2017-02-01T01:15:27.167Z,19.28
2017-02-01T01:15:55.164Z,19.32
2017-02-01T01:16:23.089Z,19.36
2017-02-01T01:16:50.966Z,19.46
2017-02-01T01:17:19.044Z,19.37
2017-02-01T01:17:46.976Z,19.47
2017-02-01T01:18:15.556Z,19.39
2017-02-01T01:18:44.299Z,19.46
2017-02-01T01:19:12.404Z,19.51
2017-02-01T01:19:40.371Z,19.54
2017-02-01T01:20:09.306Z,19.46
2017-02-01T01:20:37.409Z,19.48
2017-02-01T01:21:06.286Z,19.46
2017-02-01T01:21:35.120Z,19.46
2017-02-01T01:22:03.160Z,19.51
2017-02-01T01:22:31.165Z,19.51
2017-02-01T01:22:59.067Z,19.51
2017-02-01T01:23:27.068Z,19.44
2017-02-01T01:23:55.162Z,19.4
2017-02-01T01:24:23.823Z,19.33
2017-02-01T01:24:52.620Z,19.41
2017-02-01T01:25:20.541Z,19.37
2017-02-01T01:25:49.391Z,19.37
2017-02-01T01:26:17.370Z,19.46
2017-02-01T01:26:45.410Z,19.4
2017-02-01T01:27:14.290Z,19.31
2017-02-01T01:27:42.219Z,19.28
2017-02-01T01:28:10.149Z,19.33
2017-02-01T01:28:39.001Z,19.28
2017-02-01T01:29:06.935Z,19.33
2017-02-01T01:29:35.008Z,19.23
2017-02-01T01:30:03.744Z,19.33
2017-02-01T01:30:31.606Z,19.21
2017-02-01T01:31:00.357Z,19.31
2017-02-01T01:31:29.021Z,19.37
2017-02-01T01:31:56.993Z,19.28
2017-02-01T01:32:24.923Z,19.29
2017-02-01T01:32:52.901Z,19.39
2017-02-01T01:33:20.800Z,19.36
2017-02-01T01:33:50.389Z,19.32
2017-02-01T01:34:18.528Z,19.39
2017-02-01T01:34:46.631Z,19.33
2017-02-01T01:35:14.632Z,19.37
2017-02-01T01:35:43.473Z,19.33
2017-02-01T01:36:12.392Z,19.4
2017-02-01T01:36:40.405Z,19.26
2017-02-01T01:37:09.149Z,19.32
2017-02-01T01:37:37.475Z,19.32
2017-02-01T01:38:05.753Z,19.4
2017-02-01T01:38:33.838Z,19.33
2017-02-01T01:39:01.819Z,19.37
2017-02-01T01:39:29.914Z,19.29
2017-02-01T01:39:57.975Z,19.32
2017-02-01T01:41:04.337Z,19.32
2017-02-01T01:41:32.408Z,19.29
2017-02-01T01:42:00.383Z,19.36
2017-02-01T01:42:28.460Z,19.28
2017-02-01T01:42:56.449Z,19.26
2017-02-01T01:43:26.013Z,19.26
2017-02-01T01:43:53.821Z,19.29
2017-02-01T01:44:21.901Z,19.41
2017-02-01T01:44:50.368Z,19.32
2017-02-01T01:45:19.187Z,19.29
2017-02-01T01:45:48.966Z,19.29
2017-02-01T01:46:16.973Z,19.32
2017-02-01T01:46:45.069Z,19.32
2017-02-01T01:47:12.940Z,19.28
2017-02-01T01:47:40.995Z,19.33
2017-02-01T01:48:09.016Z,19.31
2017-02-01T01:48:37.671Z,19.32
2017-02-01T01:49:05.771Z,19.22
2017-02-01T01:49:33.799Z,19.33
2017-02-01T01:50:01.861Z,19.26
2017-02-01T01:50:30.246Z,19.29
2017-02-01T01:50:58.960Z,19.36
2017-02-01T01:51:27.645Z,19.28
2017-02-01T01:51:56.397Z,19.36
2017-02-01T01:52:24.416Z,19.32
2017-02-01T01:52:52.490Z,19.28
2017-02-01T01:53:20.595Z,19.37
2017-02-01T01:53:48.617Z,19.4
2017-02-01T01:54:16.596Z,19.44
2017-02-01T01:54:44.741Z,19.46
2017-02-01T01:55:12.742Z,19.44
2017-02-01T01:55:40.765Z,19.44
2017-02-01T01:56:08.892Z,19.4
2017-02-01T01:56:36.971Z,19.43
2017-02-01T01:57:04.724Z,19.41
2017-02-01T01:57:32.791Z,19.41
2017-02-01T01:58:00.768Z,19.46
2017-02-01T01:58:28.697Z,19.37
2017-02-01T01:58:56.673Z,19.5
2017-02-01T01:59:24.774Z,19.47
2017-02-01T01:59:52.780Z,19.46
2017-02-01T02:00:20.790Z,19.46
2017-02-01T02:00:48.751Z,19.46
2017-02-01T02:01:16.701Z,19.48
2017-02-01T02:01:44.715Z,19.47
2017-02-01T02:02:12.913Z,19.41
2017-02-01T02:02:41.009Z,19.46
2017-02-01T02:03:09.882Z,19.48
2017-02-01T02:03:37.945Z,19.46
2017-02-01T02:04:05.949Z,19.39
2017-02-01T02:04:33.964Z,19.41
2017-02-01T02:05:01.927Z,19.51
2017-02-01T02:05:31.044Z,19.5
2017-02-01T02:05:59.943Z,19.5
2017-02-01T02:06:27.864Z,19.44
2017-02-01T02:06:55.790Z,19.41
2017-02-01T02:07:24.505Z,19.36
2017-02-01T02:07:52.407Z,19.46
2017-02-01T02:08:21.018Z,19.39
2017-02-01T02:08:49.782Z,19.62
2017-02-01T02:09:17.640Z,19.44
2017-02-01T02:09:45.705Z,19.54
2017-02-01T02:10:14.502Z,19.55
2017-02-01T02:10:42.384Z,19.55
2017-02-01T02:11:10.270Z,19.55
2017-02-01T02:11:38.377Z,19.51
2017-02-01T02:12:07.128Z,19.58
2017-02-01T02:12:35.032Z,19.43
2017-02-01T02:13:02.986Z,19.5
2017-02-01T02:13:31.031Z,19.44
2017-02-01T02:13:59.046Z,19.56
2017-02-01T02:14:27.814Z,19.55
2017-02-01T02:14:55.703Z,19.39
2017-02-01T02:15:23.656Z,19.59
2017-02-01T02:15:51.576Z,19.39
2017-02-01T02:16:19.549Z,19.54
2017-02-01T02:16:47.436Z,19.39
2017-02-01T02:17:15.516Z,19.4
2017-02-01T02:17:44.375Z,19.43
2017-02-01T02:18:12.269Z,19.55
2017-02-01T02:18:40.095Z,19.46
2017-02-01T02:19:08.060Z,19.5
2017-02-01T02:20:14.429Z,19.55
2017-02-01T02:20:42.565Z,19.46
2017-02-01T02:21:10.544Z,19.5
2017-02-01T02:21:40.183Z,19.48
2017-02-01T02:22:08.266Z,19.51
2017-02-01T02:22:36.088Z,19.5
2017-02-01T02:23:03.987Z,19.4
2017-02-01T02:23:31.888Z,19.41
2017-02-01T02:24:01.563Z,19.33
2017-02-01T02:24:29.696Z,19.32
2017-02-01T02:24:57.598Z,19.37
2017-02-01T02:25:25.603Z,19.33
2017-02-01T02:25:53.694Z,19.37
2017-02-01T02:26:21.659Z,19.4
2017-02-01T02:26:49.618Z,19.29
2017-02-01T02:27:18.505Z,19.4
2017-02-01T02:27:46.673Z,19.36
2017-02-01T02:28:14.674Z,19.4
2017-02-01T02:28:42.694Z,19.31
2017-02-01T02:29:10.676Z,19.41
2017-02-01T02:29:38.732Z,19.4
2017-02-01T02:30:06.857Z,19.41
2017-02-01T02:30:34.858Z,19.32
2017-02-01T02:31:02.929Z,19.32
2017-02-01T02:31:30.857Z,19.44
2017-02-01T02:31:58.753Z,19.43
2017-02-01T02:32:26.670Z,19.44
2017-02-01T02:32:54.697Z,19.33
2017-02-01T02:33:23.555Z,19.43
2017-02-01T02:33:51.697Z,19.41
2017-02-01T02:34:19.778Z,19.37
2017-02-01T02:34:47.803Z,19.47
2017-02-01T02:35:15.853Z,19.43
2017-02-01T02:35:44.724Z,19.5
2017-02-01T02:36:12.837Z,19.46
2017-02-01T02:36:41.591Z,19.44
2017-02-01T02:37:09.566Z,19.54
2017-02-01T02:37:37.579Z,19.39
2017-02-01T02:38:05.641Z,19.58
2017-02-01T02:38:33.656Z,19.5
2017-02-01T02:39:01.755Z,19.4
2017-02-01T02:39:29.842Z,19.51
2017-02-01T02:39:57.735Z,19.5
2017-02-01T02:40:25.503Z,19.44
2017-02-01T02:40:53.504Z,19.51
2017-02-01T02:41:21.503Z,19.48
2017-02-01T02:41:50.205Z,19.5
2017-02-01T02:42:18.309Z,19.51
2017-02-01T02:42:47.065Z,19.4
2017-02-01T02:43:14.893Z,19.54
2017-02-01T02:43:43.670Z,19.41
2017-02-01T02:44:12.413Z,19.55
2017-02-01T02:44:40.311Z,19.58
2017-02-01T02:45:08.353Z,19.47
2017-02-01T02:45:36.364Z,19.5
2017-02-01T02:46:04.292Z,19.58
2017-02-01T02:46:32.316Z,19.56
2017-02-01T02:47:00.310Z,19.48
2017-02-01T02:47:28.333Z,19.4
2017-02-01T02:47:57.097Z,19.56
2017-02-01T02:48:25.138Z,19.54
2017-02-01T02:48:53.262Z,19.63
2017-02-01T02:49:22.097Z,19.56
2017-02-01T02:49:50.151Z,19.62
2017-02-01T02:50:18.036Z,19.51
2017-02-01T02:50:46.143Z,19.55
2017-02-01T02:51:14.217Z,19.48
2017-02-01T02:51:43.079Z,19.56
2017-02-01T02:52:11.037Z,19.58
2017-02-01T02:52:39.098Z,19.62
2017-02-01T02:53:07.027Z,19.61
2017-02-01T02:53:35.008Z,19.58
2017-02-01T02:54:03.083Z,19.51
2017-02-01T02:54:31.125Z,19.5
2017-02-01T02:54:58.954Z,19.47
2017-02-01T02:55:26.921Z,19.61
2017-02-01T02:55:54.805Z,19.59
2017-02-01T02:56:22.700Z,19.55
2017-02-01T02:56:51.472Z,19.63
2017-02-01T02:57:19.437Z,19.66
2017-02-01T02:57:47.447Z,19.66
2017-02-01T02:58:15.326Z,19.56
2017-02-01T02:59:21.687Z,19.66
2017-02-01T02:59:49.674Z,19.65
2017-02-01T03:00:17.691Z,19.63
2017-02-01T03:00:45.591Z,19.58
2017-02-01T03:01:13.662Z,19.65
2017-02-01T03:01:41.577Z,19.69
2017-02-01T03:02:09.570Z,19.74
2017-02-01T03:02:37.478Z,19.74
2017-02-01T03:03:05.518Z,19.71
2017-02-01T03:03:33.557Z,19.74
2017-02-01T03:04:01.466Z,19.78
2017-02-01T03:04:29.205Z,19.73
2017-02-01T03:04:57.119Z,19.63
2017-02-01T03:05:25.080Z,19.69
2017-02-01T03:05:52.864Z,19.63
2017-02-01T03:06:21.318Z,19.68
2017-02-01T03:06:49.192Z,19.65
2017-02-01T03:07:17.296Z,19.55
2017-02-01T03:07:45.403Z,19.68
2017-02-01T03:08:13.476Z,19.66
2017-02-01T03:08:41.532Z,19.62
2017-02-01T03:09:09.570Z,19.62
2017-02-01T03:09:37.576Z,19.61
2017-02-01T03:10:05.484Z,19.68
2017-02-01T03:10:33.486Z,19.69
2017-02-01T03:11:01.377Z,19.63
2017-02-01T03:11:30.251Z,19.66
2017-02-01T03:11:58.086Z,19.74
2017-02-01T03:12:26.945Z,19.71
2017-02-01T03:12:55.004Z,19.73
2017-02-01T03:13:23.097Z,19.77
2017-02-01T03:13:51.114Z,19.74
2017-02-01T03:14:19.841Z,19.73
2017-02-01T03:14:48.616Z,19.62
2017-02-01T03:15:16.559Z,19.62
2017-02-01T03:15:44.534Z,19.55
2017-02-01T03:16:12.597Z,19.69
2017-02-01T03:16:40.708Z,19.69
2017-02-01T03:17:08.675Z,19.66
2017-02-01T03:17:36.596Z,19.66
2017-02-01T03:18:05.363Z,19.74
2017-02-01T03:18:33.461Z,19.65
2017-02-01T03:19:01.601Z,19.61
2017-02-01T03:19:30.323Z,19.58
2017-02-01T03:19:58.240Z,19.65
2017-02-01T03:20:26.322Z,19.63
2017-02-01T03:20:54.323Z,19.68
2017-02-01T03:21:22.616Z,19.73
2017-02-01T03:21:51.371Z,19.73
2017-02-01T03:22:19.977Z,19.81
2017-02-01T03:22:47.896Z,19.69
2017-02-01T03:23:15.869Z,19.76
2017-02-01T03:23:43.929Z,19.78
2017-02-01T03:24:12.059Z,19.77
2017-02-01T03:24:40.154Z,19.74
2017-02-01T03:25:08.178Z,19.76
2017-02-01T03:25:36.800Z,19.69
2017-02-01T03:26:04.792Z,19.77
2017-02-01T03:26:33.594Z,19.78
2017-02-01T03:27:01.568Z,19.78
2017-02-01T03:27:29.608Z,19.83
2017-02-01T03:27:57.643Z,19.84
2017-02-01T03:28:25.539Z,19.77
2017-02-01T03:28:53.420Z,19.66
2017-02-01T03:29:21.485Z,19.73
2017-02-01T03:29:49.602Z,19.69
2017-02-01T03:30:18.176Z,19.74
2017-02-01T03:30:46.943Z,19.76
2017-02-01T03:31:15.845Z,19.77
2017-02-01T03:31:44.674Z,19.77
2017-02-01T03:32:12.776Z,19.69
2017-02-01T03:32:41.536Z,19.62
2017-02-01T03:33:09.429Z,19.65
2017-02-01T03:33:38.167Z,19.62
2017-02-01T03:34:06.089Z,19.66
2017-02-01T03:34:33.991Z,19.62
2017-02-01T03:35:01.973Z,19.58
2017-02-01T03:35:29.959Z,19.61
2017-02-01T03:35:58.045Z,19.65
2017-02-01T03:36:26.255Z,19.61
2017-02-01T03:36:54.176Z,19.61
2017-02-01T03:37:22.050Z,19.54
2017-02-01T03:38:28.294Z,19.48
2017-02-01T03:38:56.280Z,19.46
2017-02-01T03:39:24.258Z,19.59
2017-02-01T03:39:52.945Z,19.56
2017-02-01T03:40:21.041Z,19.58
2017-02-01T03:40:49.808Z,19.55
2017-02-01T03:41:18.573Z,19.39
2017-02-01T03:41:47.336Z,19.61
2017-02-01T03:42:15.363Z,19.51
2017-02-01T03:42:43.431Z,19.58
2017-02-01T03:43:11.422Z,19.65
2017-02-01T03:43:39.522Z,19.65
2017-02-01T03:44:07.626Z,19.48
2017-02-01T03:44:35.518Z,19.39
2017-02-01T03:45:03.571Z,19.5
2017-02-01T03:45:31.583Z,19.5
2017-02-01T03:45:59.555Z,19.37
2017-02-01T03:46:27.560Z,19.59
2017-02-01T03:46:55.667Z,19.47
2017-02-01T03:47:24.105Z,19.4
2017-02-01T03:47:52.158Z,19.41
2017-02-01T03:48:20.282Z,19.48
2017-02-01T03:48:48.285Z,19.4
2017-02-01T03:49:16.267Z,19.46
2017-02-01T03:49:44.204Z,19.51
2017-02-01T03:50:13.043Z,19.48
2017-02-01T03:50:41.133Z,19.56
2017-02-01T03:51:09.163Z,19.51
2017-02-01T03:51:37.491Z,19.4
2017-02-01T03:52:05.638Z,19.41
2017-02-01T03:52:33.726Z,19.4
2017-02-01T03:53:01.656Z,19.37
2017-02-01T03:53:29.804Z,19.46
2017-02-01T03:53:57.871Z,19.39
2017-02-01T03:54:25.798Z,19.44
2017-02-01T03:54:53.857Z,19.4
2017-02-01T03:55:21.735Z,19.4
2017-02-01T03:55:49.756Z,19.46
2017-02-01T03:56:17.731Z,19.46
2017-02-01T03:56:46.510Z,19.43
2017-02-01T03:57:14.423Z,19.46
2017-02-01T03:57:43.288Z,19.44
2017-02-01T03:58:11.257Z,19.44
2017-02-01T03:58:40.157Z,19.5
2017-02-01T03:59:08.151Z,19.48
2017-02-01T03:59:36.061Z,19.5
2017-02-01T04:00:04.151Z,19.5
2017-02-01T04:00:32.245Z,19.51
2017-02-01T04:01:00.126Z,19.59
2017-02-01T04:01:28.137Z,19.58
2017-02-01T04:01:56.143Z,19.55
2017-02-01T04:02:24.971Z,19.46
2017-02-01T04:02:52.957Z,19.48
2017-02-01T04:03:20.996Z,19.46
2017-02-01T04:03:49.016Z,19.46
2017-02-01T04:04:17.127Z,19.41
2017-02-01T04:04:45.243Z,19.39
2017-02-01T04:05:13.323Z,19.4
2017-02-01T04:05:41.348Z,19.36
2017-02-01T04:06:09.228Z,19.28
2017-02-01T04:06:37.083Z,19.32
2017-02-01T04:07:05.894Z,19.32
2017-02-01T04:07:33.949Z,19.33
2017-02-01T04:08:02.013Z,19.39
2017-02-01T04:08:29.994Z,19.29
2017-02-01T04:08:58.888Z,19.37
2017-02-01T04:09:26.863Z,19.41
2017-02-01T04:09:54.941Z,19.37
2017-02-01T04:10:22.985Z,19.4
2017-02-01T04:10:51.121Z,19.41
2017-02-01T04:11:19.227Z,19.44
2017-02-01T04:11:47.993Z,19.44
2017-02-01T04:12:16.836Z,19.41
2017-02-01T04:12:44.875Z,19.41
2017-02-01T04:13:12.883Z,19.44
2017-02-01T04:13:40.947Z,19.44
2017-02-01T04:14:08.928Z,19.37
2017-02-01T04:14:37.696Z,19.44
2017-02-01T04:15:05.602Z,19.39
2017-02-01T04:15:33.577Z,19.43
2017-02-01T04:16:02.456Z,19.36
2017-02-01T04:16:30.484Z,19.39
2017-02-01T04:17:37.635Z,19.33
2017-02-01T04:18:05.523Z,19.41
2017-02-01T04:18:33.408Z,19.65
2017-02-01T04:19:02.193Z,19.58
2017-02-01T04:19:30.862Z,19.51
2017-02-01T04:19:59.586Z,19.47
2017-02-01T04:20:27.372Z,19.48
2017-02-01T04:20:56.144Z,19.46
2017-02-01T04:21:24.176Z,19.48
2017-02-01T04:21:52.472Z,19.47
2017-02-01T04:22:20.372Z,19.46
2017-02-01T04:22:48.382Z,19.44
2017-02-01T04:23:16.385Z,19.46
2017-02-01T04:23:44.447Z,19.48
2017-02-01T04:24:12.316Z,19.39
2017-02-01T04:24:40.325Z,19.51
2017-02-01T04:25:08.197Z,19.55
2017-02-01T04:25:36.292Z,19.56
2017-02-01T04:26:05.091Z,19.5
2017-02-01T04:26:33.067Z,19.56
2017-02-01T04:27:01.208Z,19.48
2017-02-01T04:27:29.238Z,19.4
2017-02-01T04:27:57.151Z,19.51
2017-02-01T04:28:25.125Z,19.51
2017-02-01T04:28:53.253Z,19.4
2017-02-01T04:29:21.241Z,19.47
2017-02-01T04:29:49.335Z,19.5
2017-02-01T04:30:18.125Z,19.47
2017-02-01T04:30:46.809Z,19.44
2017-02-01T04:31:14.957Z,19.58
2017-02-01T04:31:43.051Z,19.46
2017-02-01T04:32:11.162Z,19.4
2017-02-01T04:32:39.207Z,19.43
2017-02-01T04:33:08.062Z,19.51
2017-02-01T04:33:36.086Z,19.54
2017-02-01T04:34:04.843Z,19.54
2017-02-01T04:34:32.721Z,19.59
2017-02-01T04:35:00.645Z,19.54
2017-02-01T04:35:28.530Z,19.41
2017-02-01T04:35:56.636Z,19.48
2017-02-01T04:36:24.640Z,19.51
2017-02-01T04:36:52.470Z,19.61
2017-02-01T04:37:20.572Z,19.54
2017-02-01T04:37:48.605Z,19.71
2017-02-01T04:38:16.430Z,19.61
2017-02-01T04:38:44.340Z,19.65
2017-02-01T04:39:12.342Z,19.56
2017-02-01T04:39:40.554Z,19.61
2017-02-01T04:40:08.442Z,19.61
2017-02-01T04:40:36.445Z,19.63
2017-02-01T04:41:04.453Z,19.59
2017-02-01T04:41:32.408Z,19.66
2017-02-01T04:42:00.305Z,19.55
2017-02-01T04:42:28.252Z,19.58
2017-02-01T04:42:56.266Z,19.58
2017-02-01T04:43:24.287Z,19.66
2017-02-01T04:43:52.999Z,19.61
2017-02-01T04:44:20.898Z,19.62
2017-02-01T04:44:49.713Z,19.54
2017-02-01T04:45:17.769Z,19.56
2017-02-01T04:45:45.625Z,19.65
2017-02-01T04:46:14.265Z,19.68
2017-02-01T04:46:42.231Z,19.78
2017-02-01T04:47:10.290Z,19.68
2017-02-01T04:47:38.349Z,19.73
2017-02-01T04:48:07.080Z,19.66
2017-02-01T04:48:35.141Z,19.68
2017-02-01T04:49:04.001Z,19.73
2017-02-01T04:49:32.128Z,19.69
2017-02-01T04:50:00.179Z,19.77
2017-02-01T04:50:28.284Z,19.71
2017-02-01T04:50:56.361Z,19.76
2017-02-01T04:51:25.120Z,19.68
2017-02-01T04:51:53.253Z,19.69
2017-02-01T04:52:21.423Z,19.71
2017-02-01T04:52:49.303Z,19.76
2017-02-01T04:53:17.279Z,19.69
2017-02-01T04:53:46.137Z,19.69
2017-02-01T04:54:14.223Z,19.69
2017-02-01T04:54:42.637Z,19.66
2017-02-01T04:55:10.557Z,19.62
2017-02-01T04:55:38.433Z,19.71
2017-02-01T04:56:44.798Z,19.68
2017-02-01T04:57:12.697Z,19.74
2017-02-01T04:57:40.759Z,19.69
2017-02-01T04:58:08.845Z,19.78
2017-02-01T04:58:36.827Z,19.78
2017-02-01T04:59:04.819Z,19.73
2017-02-01T04:59:33.592Z,19.73
2017-02-01T05:00:02.261Z,19.69
2017-02-01T05:00:31.082Z,19.69
2017-02-01T05:00:59.126Z,19.66
2017-02-01T05:01:27.116Z,19.69
2017-02-01T05:01:55.819Z,19.69
2017-02-01T05:02:23.827Z,19.73
2017-02-01T05:02:51.792Z,19.63
2017-02-01T05:03:20.622Z,19.71
2017-02-01T05:03:49.421Z,19.69
2017-02-01T05:04:18.257Z,19.73
2017-02-01T05:04:46.176Z,19.73
2017-02-01T05:05:14.285Z,19.76
2017-02-01T05:05:42.270Z,19.74
2017-02-01T05:06:10.325Z,19.69
2017-02-01T05:06:39.032Z,19.73
2017-02-01T05:07:07.039Z,19.74
2017-02-01T05:07:36.156Z,19.78
2017-02-01T05:08:04.263Z,19.78
2017-02-01T05:08:32.339Z,19.83
2017-02-01T05:09:00.343Z,19.83
2017-02-01T05:09:28.272Z,19.84
2017-02-01T05:09:56.344Z,19.87
2017-02-01T05:10:24.491Z,19.87
2017-02-01T05:10:52.401Z,19.84
2017-02-01T05:11:20.508Z,19.87
2017-02-01T05:11:48.640Z,19.81
2017-02-01T05:12:16.714Z,19.86
2017-02-01T05:12:45.614Z,19.86
2017-02-01T05:13:13.409Z,19.86
2017-02-01T05:13:41.471Z,19.86
2017-02-01T05:14:09.491Z,19.84
2017-02-01T05:14:37.377Z,19.8
2017-02-01T05:15:05.480Z,19.77
2017-02-01T05:15:33.581Z,19.74
2017-02-01T05:16:01.667Z,19.74
2017-02-01T05:16:29.716Z,19.84
2017-02-01T05:16:57.753Z,19.88
2017-02-01T05:17:25.670Z,19.8
2017-02-01T05:17:53.599Z,19.78
2017-02-01T05:18:21.572Z,19.77
2017-02-01T05:18:50.463Z,19.83
2017-02-01T05:19:19.205Z,19.78
2017-02-01T05:19:47.636Z,19.84
2017-02-01T05:20:16.512Z,19.78
2017-02-01T05:20:44.375Z,19.77
2017-02-01T05:21:13.921Z,19.73
2017-02-01T05:21:41.867Z,19.69
2017-02-01T05:22:09.882Z,19.69
2017-02-01T05:22:38.154Z,19.78
2017-02-01T05:23:06.094Z,19.66
2017-02-01T05:23:34.083Z,19.76
2017-02-01T05:24:02.894Z,19.78
2017-02-01T05:24:30.868Z,19.77
2017-02-01T05:24:58.820Z,19.76
2017-02-01T05:25:26.761Z,19.77
2017-02-01T05:25:54.723Z,19.86
2017-02-01T05:26:23.474Z,19.8
2017-02-01T05:26:51.360Z,19.74
2017-02-01T05:27:20.165Z,19.71
2017-02-01T05:27:47.959Z,19.69
2017-02-01T05:28:15.955Z,19.73
2017-02-01T05:28:43.904Z,19.8
2017-02-01T05:29:11.774Z,19.77
2017-02-01T05:29:39.699Z,19.77
2017-02-01T05:30:08.477Z,19.74
2017-02-01T05:30:36.370Z,19.78
2017-02-01T05:31:04.414Z,19.78
2017-02-01T05:31:32.480Z,19.71
2017-02-01T05:32:00.353Z,19.74
2017-02-01T05:32:28.337Z,19.78
2017-02-01T05:32:56.226Z,19.78
2017-02-01T05:33:24.132Z,19.77
2017-02-01T05:33:52.109Z,19.81
2017-02-01T05:34:20.988Z,19.84
2017-02-01T05:34:48.866Z,19.88
2017-02-01T05:35:56.012Z,19.86
2017-02-01T05:36:24.775Z,19.87
2017-02-01T05:36:52.747Z,19.88
2017-02-01T05:37:20.747Z,19.87
2017-02-01T05:37:49.866Z,19.86
2017-02-01T05:38:17.868Z,19.94
2017-02-01T05:38:46.642Z,19.87
2017-02-01T05:39:14.723Z,19.86
2017-02-01T05:39:42.665Z,19.87
2017-02-01T05:40:10.799Z,19.88
2017-02-01T05:40:38.788Z,19.94
2017-02-01T05:41:06.793Z,19.91
2017-02-01T05:41:35.479Z,19.96
2017-02-01T05:42:03.536Z,19.98
2017-02-01T05:42:31.497Z,19.98
2017-02-01T05:43:00.295Z,19.92
2017-02-01T05:43:28.263Z,19.95
2017-02-01T05:43:56.364Z,20.01
2017-02-01T05:44:24.386Z,20.05
2017-02-01T05:44:52.286Z,19.96
2017-02-01T05:45:20.344Z,20.01
2017-02-01T05:45:48.462Z,20.01
2017-02-01T05:46:16.462Z,19.96
2017-02-01T05:46:44.474Z,19.92
2017-02-01T05:47:12.556Z,19.96
2017-02-01T05:47:40.628Z,20.06
2017-02-01T05:48:08.545Z,20.03
2017-02-01T05:48:36.564Z,19.92
2017-02-01T05:49:04.637Z,20.05
2017-02-01T05:49:32.690Z,19.92
2017-02-01T05:50:01.783Z,20.02
2017-02-01T05:50:29.800Z,20.03
2017-02-01T05:50:57.843Z,20.11
2017-02-01T05:51:27.404Z,20.06
2017-02-01T05:51:56.289Z,20.03
2017-02-01T05:52:24.164Z,20.11
2017-02-01T05:52:52.479Z,20.03
2017-02-01T05:53:21.368Z,20.08
2017-02-01T05:53:49.340Z,20.08
2017-02-01T05:54:17.347Z,20.08
2017-02-01T05:54:46.212Z,20.06
2017-02-01T05:55:14.124Z,20.08
2017-02-01T05:55:42.168Z,19.96
2017-02-01T05:56:10.296Z,20.06
2017-02-01T05:56:39.074Z,20.02
2017-02-01T05:57:07.081Z,19.94
2017-02-01T05:57:35.171Z,20.03
2017-02-01T05:58:04.835Z,19.92
2017-02-01T05:58:33.583Z,19.91
2017-02-01T05:59:01.598Z,19.94
2017-02-01T05:59:29.695Z,19.91
2017-02-01T05:59:58.520Z,19.88
2017-02-01T06:00:27.118Z,19.91
2017-02-01T06:00:55.072Z,19.92
2017-02-01T06:01:23.947Z,19.81
2017-02-01T06:01:52.841Z,19.84
2017-02-01T06:02:20.867Z,19.92
2017-02-01T06:02:48.960Z,19.84
2017-02-01T06:03:16.896Z,19.88
2017-02-01T06:03:45.566Z,19.98
2017-02-01T06:04:13.604Z,19.8
2017-02-01T06:04:41.553Z,19.98
2017-02-01T06:05:10.293Z,19.94
2017-02-01T06:05:39.127Z,19.99
2017-02-01T06:06:07.181Z,19.92
2017-02-01T06:06:36.080Z,19.98
2017-02-01T06:07:04.048Z,19.92
2017-02-01T06:07:32.036Z,19.99
2017-02-01T06:08:00.250Z,19.94
2017-02-01T06:08:28.307Z,19.98
2017-02-01T06:08:56.421Z,19.98
2017-02-01T06:09:24.317Z,19.95
2017-02-01T06:09:52.389Z,19.92